createdAt,value
2018-09-17T00:02:20.783Z,101932.70
2018-09-17T00:04:58.274Z,101929.25
2018-09-17T00:07:36.199Z,101924.40
2018-09-17T00:10:15.576Z,101928.77
2018-09-17T00:12:55.691Z,101908.97
2018-09-17T00:15:33.631Z,101912.06
2018-09-17T00:18:12.248Z,101908.97
2018-09-17T00:20:50.085Z,101912.05
2018-09-17T00:23:29.385Z,101905.44
2018-09-17T00:26:08.064Z,101905.89
2018-09-17T00:28:37.571Z,101906.36
2018-09-17T00:31:07.201Z,101906.40
2018-09-17T00:33:36.717Z,101896.71
2018-09-17T00:36:06.910Z,101889.21
2018-09-17T00:38:36.354Z,101887.04
2018-09-17T00:41:06.527Z,101884.84
2018-09-17T00:43:35.959Z,101880.45
2018-09-17T00:46:06.105Z,101883.09
2018-09-17T00:48:35.459Z,101880.90
2018-09-17T00:51:06.399Z,101887.02
2018-09-17T00:53:35.773Z,101876.50
2018-09-17T00:56:06.265Z,101879.55
2018-09-17T00:58:35.860Z,101886.55
2018-09-17T01:01:06.612Z,101893.58
2018-09-17T01:03:35.976Z,101874.69
2018-09-17T01:06:05.415Z,101876.88
2018-09-17T01:08:34.822Z,101875.53
2018-09-17T01:11:04.293Z,101878.15
2018-09-17T01:13:34.517Z,101876.40
2018-09-17T01:16:04.458Z,101881.20
2018-09-17T01:18:33.850Z,101879.44
2018-09-17T01:21:03.205Z,101876.35
2018-09-17T01:23:32.558Z,101882.92
2018-09-17T01:26:02.380Z,101881.15
2018-09-17T01:28:31.822Z,101882.90
2018-09-17T01:31:01.787Z,101890.77
2018-09-17T01:33:31.733Z,101888.59
2018-09-17T01:36:01.073Z,101890.77
2018-09-17T01:38:30.584Z,101895.61
2018-09-17T01:40:59.969Z,101888.59
2018-09-17T01:43:29.341Z,101888.13
2018-09-17T01:45:58.707Z,101885.92
2018-09-17T01:48:28.129Z,101885.03
2018-09-17T01:50:57.502Z,101878.88
2018-09-17T01:53:26.889Z,101884.14
2018-09-17T01:55:56.265Z,101890.75
2018-09-17T01:58:25.599Z,101892.49
2018-09-17T02:00:55.173Z,101890.30
2018-09-17T02:03:24.604Z,101895.57
2018-09-17T02:05:54.409Z,101892.52
2018-09-17T02:08:24.066Z,101894.73
2018-09-17T02:10:53.601Z,101892.98
2018-09-17T02:13:23.234Z,101895.64
2018-09-17T02:15:52.878Z,101893.01
2018-09-17T02:18:22.694Z,101896.53
2018-09-17T02:20:52.374Z,101891.72
2018-09-17T02:23:21.922Z,101892.16
2018-09-17T02:25:51.446Z,101894.78
2018-09-17T02:28:20.937Z,101878.09
2018-09-17T02:30:50.463Z,101882.06
2018-09-17T02:33:20.070Z,101883.80
2018-09-17T02:35:49.514Z,101892.14
2018-09-17T02:38:18.990Z,101882.46
2018-09-17T02:40:48.341Z,101886.86
2018-09-17T02:43:17.764Z,101887.74
2018-09-17T02:45:47.142Z,101884.64
2018-09-17T02:48:16.527Z,101886.41
2018-09-17T02:50:45.867Z,101874.09
2018-09-17T02:53:15.221Z,101881.13
2018-09-17T02:55:45.410Z,101881.55
2018-09-17T02:58:20.783Z,101872.76
2018-09-17T03:00:50.258Z,101867.91
2018-09-17T03:03:19.611Z,101872.83
2018-09-17T03:05:52.534Z,101873.66
2018-09-17T03:08:22.120Z,101878.02
2018-09-17T03:10:51.499Z,101872.72
2018-09-17T03:13:20.910Z,101877.09
2018-09-17T03:15:53.545Z,101873.59
2018-09-17T03:18:39.798Z,101877.08
2018-09-17T03:21:09.177Z,101876.16
2018-09-17T03:23:39.031Z,101866.47
2018-09-17T03:26:09.155Z,101875.25
2018-09-17T03:28:38.524Z,101878.72
2018-09-17T03:31:07.885Z,101881.34
2018-09-17T03:33:37.298Z,101885.69
2018-09-17T03:36:06.795Z,101883.02
2018-09-17T03:38:47.731Z,101892.16
2018-09-17T03:41:18.118Z,101890.80
2018-09-17T03:43:48.813Z,101893.39
2018-09-17T03:46:18.236Z,101906.09
2018-09-17T03:48:47.686Z,101906.52
2018-09-17T03:51:17.446Z,101914.82
2018-09-17T03:53:46.846Z,101906.47
2018-09-17T03:56:16.188Z,101901.18
2018-09-17T03:58:45.688Z,101898.09
2018-09-17T04:01:15.685Z,101899.35
2018-09-17T04:03:45.136Z,101895.83
2018-09-17T04:06:15.112Z,101890.98
2018-09-17T04:08:44.474Z,101886.11
2018-09-17T04:11:14.041Z,101888.28
2018-09-17T04:13:43.714Z,101895.27
2018-09-17T04:16:13.126Z,101886.95
2018-09-17T04:18:42.537Z,101883.00
2018-09-17T04:21:12.582Z,101883.84
2018-09-17T04:23:41.980Z,101877.28
2018-09-17T04:26:12.505Z,101878.55
2018-09-17T04:28:41.944Z,101875.48
2018-09-17T04:31:11.353Z,101876.77
2018-09-17T04:33:42.974Z,101876.34
2018-09-17T04:36:14.087Z,101870.20
2018-09-17T04:38:43.470Z,101877.65
2018-09-17T04:41:12.949Z,101876.28
2018-09-17T04:43:42.450Z,101885.05
2018-09-17T04:46:11.887Z,101876.26
2018-09-17T04:48:41.238Z,101878.87
2018-09-17T04:51:17.342Z,101881.45
2018-09-17T04:53:46.776Z,101878.77
2018-09-17T04:56:16.154Z,101878.70
2018-09-17T04:58:45.674Z,101886.54
2018-09-17T05:01:15.152Z,101889.11
2018-09-17T05:03:44.541Z,101894.34
2018-09-17T05:06:13.967Z,101887.72
2018-09-17T05:08:43.374Z,101899.52
2018-09-17T05:11:12.814Z,101902.52
2018-09-17T05:13:42.266Z,101902.95
2018-09-17T05:16:12.744Z,101906.88
2018-09-17T05:18:42.111Z,101907.72
2018-09-17T05:21:11.523Z,101909.03
2018-09-17T05:23:40.888Z,101908.56
2018-09-17T05:26:10.390Z,101906.38
2018-09-17T05:28:39.794Z,101898.97
2018-09-17T05:31:09.223Z,101895.89
2018-09-17T05:33:39.621Z,101899.87
2018-09-17T05:36:09.070Z,101895.95
2018-09-17T05:38:38.524Z,101897.30
2018-09-17T05:41:07.887Z,101906.11
2018-09-17T05:43:37.309Z,101907.08
2018-09-17T05:46:06.824Z,101915.45
2018-09-17T05:48:36.406Z,101909.41
2018-09-17T05:51:06.141Z,101912.14
2018-09-17T05:53:35.532Z,101915.28
2018-09-17T05:56:05.010Z,101912.31
2018-09-17T05:58:34.469Z,101919.89
2018-09-17T06:01:03.887Z,101916.03
2018-09-17T06:03:33.287Z,101914.86
2018-09-17T06:06:02.784Z,101916.28
2018-09-17T06:08:32.157Z,101919.50
2018-09-17T06:11:01.782Z,101917.83
2018-09-17T06:13:31.151Z,101923.19
2018-09-17T06:16:00.704Z,101919.80
2018-09-17T06:18:30.197Z,101923.42
2018-09-17T06:20:59.754Z,101923.48
2018-09-17T06:23:29.206Z,101917.84
2018-09-17T06:25:58.673Z,101915.25
2018-09-17T06:28:28.261Z,101925.86
2018-09-17T06:30:59.702Z,101939.98
2018-09-17T06:33:29.168Z,101937.41
2018-09-17T06:35:58.656Z,101934.81
2018-09-17T06:38:29.766Z,101936.62
2018-09-17T06:41:00.183Z,101933.99
2018-09-17T06:43:29.693Z,101941.96
2018-09-17T06:46:07.323Z,101947.25
2018-09-17T06:48:37.229Z,101947.74
2018-09-17T06:51:07.005Z,101949.06
2018-09-17T06:53:36.492Z,101944.65
2018-09-17T06:56:06.962Z,101941.16
2018-09-17T06:58:38.327Z,101949.96
2018-09-17T07:01:13.369Z,101953.48
2018-09-17T07:03:42.837Z,101941.99
2018-09-17T07:06:12.429Z,101946.83
2018-09-17T07:08:41.898Z,101941.09
2018-09-17T07:11:11.826Z,101940.64
2018-09-17T07:13:41.866Z,101944.56
2018-09-17T07:16:11.402Z,101941.91
2018-09-17T07:18:40.880Z,101954.67
2018-09-17T07:21:10.362Z,101957.75
2018-09-17T07:23:39.854Z,101960.35
2018-09-17T07:26:09.332Z,101964.30
2018-09-17T07:28:38.915Z,101954.12
2018-09-17T07:31:08.406Z,101953.66
2018-09-17T07:33:39.684Z,101957.12
2018-09-17T07:36:09.099Z,101957.08
2018-09-17T07:38:38.553Z,101960.09
2018-09-17T07:41:08.109Z,101955.60
2018-09-17T07:43:37.534Z,101957.23
2018-09-17T07:46:07.104Z,101951.79
2018-09-17T07:48:36.514Z,101952.08
2018-09-17T07:51:06.218Z,101952.37
2018-09-17T07:53:35.633Z,101953.14
2018-09-17T07:56:05.184Z,101946.82
2018-09-17T07:58:34.668Z,101952.48
2018-09-17T08:01:04.330Z,101949.31
2018-09-17T08:03:33.796Z,101954.50
2018-09-17T08:06:03.240Z,101950.33
2018-09-17T08:08:33.960Z,101944.36
2018-09-17T08:11:03.450Z,101942.88
2018-09-17T08:13:32.913Z,101948.87
2018-09-17T08:16:02.834Z,101949.45
2018-09-17T08:18:32.559Z,101951.38
2018-09-17T08:21:05.054Z,101944.19
2018-09-17T08:23:34.560Z,101948.89
2018-09-17T08:26:03.978Z,101948.28
2018-09-17T08:28:33.385Z,101955.62
2018-09-17T08:31:06.303Z,101949.19
2018-09-17T08:33:36.093Z,101959.97
2018-09-17T08:36:06.533Z,101956.61
2018-09-17T08:38:36.174Z,101958.63
2018-09-17T08:41:06.557Z,101959.27
2018-09-17T08:43:36.980Z,101954.05
2018-09-17T08:46:07.059Z,101954.09
2018-09-17T08:48:36.452Z,101947.59
2018-09-17T08:51:06.253Z,101952.13
2018-09-17T08:53:35.629Z,101947.31
2018-09-17T08:56:11.875Z,101947.66
2018-09-17T09:00:49.527Z,101944.91
2018-09-17T09:03:24.300Z,101946.01
2018-09-17T09:05:58.788Z,101949.29
2018-09-17T09:08:28.185Z,101946.02
2018-09-17T09:11:02.733Z,101947.41
2018-09-17T09:13:39.010Z,101947.48
2018-09-17T09:16:09.358Z,101939.42
2018-09-17T09:18:38.814Z,101944.78
2018-09-17T09:21:08.277Z,101945.70
2018-09-17T09:23:38.316Z,101947.83
2018-09-17T09:26:08.045Z,101942.95
2018-09-17T09:28:37.631Z,101948.45
2018-09-17T09:31:07.010Z,101954.55
2018-09-17T09:33:36.754Z,101943.14
2018-09-17T09:36:06.231Z,101944.61
2018-09-17T09:38:35.680Z,101946.45
2018-09-17T09:41:06.522Z,101937.80
2018-09-17T09:43:35.930Z,101930.69
2018-09-17T09:46:06.431Z,101933.80
2018-09-17T09:48:35.926Z,101938.37
2018-09-17T09:51:06.666Z,101929.81
2018-09-17T09:53:36.228Z,101935.95
2018-09-17T09:56:06.190Z,101937.17
2018-09-17T09:58:36.886Z,101931.52
2018-09-17T10:01:12.665Z,101939.04
2018-09-17T10:03:43.814Z,101925.23
2018-09-17T10:06:15.465Z,101926.53
2018-09-17T10:08:50.160Z,101918.60
2018-09-17T10:11:24.723Z,101919.89
2018-09-17T10:13:59.399Z,101917.09
2018-09-17T10:16:29.637Z,101907.95
2018-09-17T10:19:04.216Z,101910.81
2018-09-17T10:21:33.687Z,101908.19
2018-09-17T10:24:03.066Z,101899.55
2018-09-17T10:26:32.457Z,101902.96
2018-09-17T10:29:02.053Z,101902.74
2018-09-17T10:31:31.523Z,101897.91
2018-09-17T10:34:00.982Z,101905.24
2018-09-17T10:36:30.486Z,101899.49
2018-09-17T10:38:59.970Z,101907.05
2018-09-17T10:41:29.424Z,101903.60
2018-09-17T10:43:58.831Z,101909.08
2018-09-17T10:46:29.546Z,101896.52
2018-09-17T10:48:58.990Z,101895.73
2018-09-17T10:51:28.490Z,101889.67
2018-09-17T10:53:58.028Z,101892.45
2018-09-17T10:56:27.447Z,101891.63
2018-09-17T10:58:56.898Z,101890.28
2018-09-17T11:01:26.319Z,101891.17
2018-09-17T11:03:59.306Z,101889.02
2018-09-17T11:06:28.710Z,101891.39
2018-09-17T11:08:58.173Z,101888.95
2018-09-17T11:11:27.549Z,101883.79
2018-09-17T11:13:56.974Z,101883.20
2018-09-17T11:16:26.340Z,101874.46
2018-09-17T11:18:55.898Z,101874.27
2018-09-17T11:21:25.333Z,101885.89
2018-09-17T11:23:54.713Z,101876.66
2018-09-17T11:26:25.398Z,101876.17
2018-09-17T11:28:54.859Z,101881.55
2018-09-17T11:31:24.311Z,101877.56
2018-09-17T11:33:53.795Z,101877.34
2018-09-17T11:36:23.291Z,101876.80
2018-09-17T11:38:52.717Z,101881.74
2018-09-17T11:41:22.106Z,101872.19
2018-09-17T11:43:51.593Z,101869.52
2018-09-17T11:46:21.104Z,101870.20
2018-09-17T11:48:50.590Z,101871.14
2018-09-17T11:51:19.995Z,101869.74
2018-09-17T11:53:49.442Z,101869.76
2018-09-17T11:56:18.935Z,101863.70
2018-09-17T11:58:48.413Z,101870.20
2018-09-17T12:02:24.385Z,101869.95
2018-09-17T12:05:03.696Z,101863.55
2018-09-17T12:07:43.628Z,101871.34
2018-09-17T12:10:13.045Z,101865.20
2018-09-17T12:12:42.459Z,101869.50
2018-09-17T12:15:11.922Z,101869.32
2018-09-17T12:17:41.358Z,101858.25
2018-09-17T12:20:10.802Z,101859.10
2018-09-17T12:22:40.150Z,101853.75
2018-09-17T12:25:09.570Z,101849.72
2018-09-17T12:27:38.950Z,101851.44
2018-09-17T12:30:08.376Z,101848.45
2018-09-17T12:32:37.739Z,101850.75
2018-09-17T12:35:07.221Z,101838.08
2018-09-17T12:37:36.606Z,101847.73
2018-09-17T12:40:06.307Z,101841.28
2018-09-17T12:42:35.700Z,101840.47
2018-09-17T12:45:06.559Z,101831.31
2018-09-17T12:47:36.001Z,101840.75
2018-09-17T12:50:06.387Z,101834.74
2018-09-17T12:52:35.782Z,101825.91
2018-09-17T12:55:05.147Z,101834.13
2018-09-17T12:57:34.531Z,101829.17
2018-09-17T13:00:04.031Z,101826.39
2018-09-17T13:02:37.108Z,101822.16
2018-09-17T13:05:06.669Z,101815.71
2018-09-17T13:07:36.103Z,101813.31
2018-09-17T13:10:06.462Z,101811.14
2018-09-17T13:12:35.894Z,101815.08
2018-09-17T13:15:07.205Z,101805.82
2018-09-17T13:17:36.915Z,101810.45
2018-09-17T13:20:06.998Z,101810.78
2018-09-17T13:22:36.397Z,101804.85
2018-09-17T13:25:06.191Z,101809.35
2018-09-17T13:27:35.667Z,101812.81
2018-09-17T13:30:07.020Z,101814.67
2018-09-17T13:32:36.470Z,101809.97
2018-09-17T13:35:07.169Z,101808.62
2018-09-17T13:37:36.605Z,101809.25
2018-09-17T13:40:06.121Z,101809.36
2018-09-17T13:42:35.682Z,101810.46
2018-09-17T13:45:08.343Z,101815.67
2018-09-17T13:47:37.880Z,101808.61
2018-09-17T13:50:07.923Z,101806.53
2018-09-17T13:52:37.623Z,101803.92
2018-09-17T13:55:08.225Z,101801.34
2018-09-17T13:57:37.829Z,101794.53
2018-09-17T14:00:07.450Z,101789.47
2018-09-17T14:02:36.963Z,101790.36
2018-09-17T14:05:07.405Z,101791.16
2018-09-17T14:07:36.879Z,101790.75
2018-09-17T14:10:06.960Z,101788.84
2018-09-17T14:12:36.338Z,101787.58
2018-09-17T14:15:06.627Z,101784.45
2018-09-17T14:17:36.069Z,101783.85
2018-09-17T14:20:07.655Z,101780.95
2018-09-17T14:22:37.615Z,101789.95
2018-09-17T14:25:07.339Z,101786.97
2018-09-17T14:27:36.887Z,101782.63
2018-09-17T14:30:06.834Z,101784.36
2018-09-17T14:32:41.530Z,101781.90
2018-09-17T14:35:11.253Z,101772.28
2018-09-17T14:37:40.651Z,101766.53
2018-09-17T14:40:10.177Z,101759.97
2018-09-17T14:42:39.674Z,101755.09
2018-09-17T14:45:09.152Z,101752.92
2018-09-17T14:47:38.594Z,101752.92
2018-09-17T14:50:08.718Z,101751.64
2018-09-17T14:52:38.374Z,101754.43
2018-09-17T14:55:07.798Z,101753.03
2018-09-17T14:57:37.246Z,101741.75
2018-09-17T15:00:06.821Z,101740.89
2018-09-17T15:02:36.279Z,101735.83
2018-09-17T15:05:06.372Z,101730.02
2018-09-17T15:07:36.020Z,101732.67
2018-09-17T15:10:07.071Z,101729.27
2018-09-17T15:12:36.788Z,101716.82
2018-09-17T15:15:06.890Z,101713.97
2018-09-17T15:17:36.361Z,101712.35
2018-09-17T15:20:06.162Z,101712.88
2018-09-17T15:22:35.602Z,101719.41
2018-09-17T15:25:06.409Z,101717.72
2018-09-17T15:27:35.866Z,101713.88
2018-09-17T15:30:07.371Z,101706.09
2018-09-17T15:32:36.878Z,101707.70
2018-09-17T15:35:06.523Z,101710.61
2018-09-17T15:37:35.981Z,101701.03
2018-09-17T15:40:05.636Z,101707.36
2018-09-17T15:42:35.050Z,101689.48
2018-09-17T15:45:04.393Z,101694.88
2018-09-17T15:47:33.882Z,101689.70
2018-09-17T15:50:03.313Z,101688.38
2018-09-17T15:52:32.852Z,101685.80
2018-09-17T15:55:02.458Z,101680.48
2018-09-17T15:57:31.871Z,101674.10
2018-09-17T16:00:01.332Z,101675.95
2018-09-17T16:02:30.893Z,101670.59
2018-09-17T16:05:02.495Z,101659.62
2018-09-17T16:07:31.983Z,101660.98
2018-09-17T16:10:01.518Z,101658.53
2018-09-17T16:12:31.204Z,101657.52
2018-09-17T16:15:00.580Z,101659.77
2018-09-17T16:17:30.036Z,101653.95
2018-09-17T16:19:59.794Z,101656.12
2018-09-17T16:22:29.146Z,101658.29
2018-09-17T16:24:58.758Z,101653.59
2018-09-17T16:27:29.771Z,101654.72
2018-09-17T16:29:59.293Z,101658.56
2018-09-17T16:32:28.807Z,101655.32
2018-09-17T16:34:58.307Z,101650.97
2018-09-17T16:37:27.724Z,101652.39
2018-09-17T16:39:57.285Z,101641.56
2018-09-17T16:42:32.057Z,101646.56
2018-09-17T16:45:01.454Z,101650.28
2018-09-17T16:47:30.855Z,101647.16
2018-09-17T16:50:00.300Z,101648.67
2018-09-17T16:52:29.836Z,101639.16
2018-09-17T16:54:59.261Z,101642.55
2018-09-17T16:57:28.660Z,101637.39
2018-09-17T16:59:58.198Z,101640.49
2018-09-17T17:02:27.617Z,101634.95
2018-09-17T17:04:57.104Z,101635.97
2018-09-17T17:07:30.974Z,101641.45
2018-09-17T17:10:00.465Z,101640.56
2018-09-17T17:12:29.809Z,101647.74
2018-09-17T17:14:59.275Z,101641.84
2018-09-17T17:17:28.690Z,101646.36
2018-09-17T17:19:58.247Z,101644.70
2018-09-17T17:22:27.773Z,101656.64
2018-09-17T17:24:57.213Z,101654.18
2018-09-17T17:27:26.862Z,101640.66
2018-09-17T17:29:56.272Z,101635.97
2018-09-17T17:32:25.734Z,101632.56
2018-09-17T17:34:55.114Z,101626.61
2018-09-17T17:37:24.584Z,101632.97
2018-09-17T17:39:54.154Z,101635.19
2018-09-17T17:42:25.483Z,101636.79
2018-09-17T17:44:55.341Z,101638.69
2018-09-17T17:47:24.761Z,101637.15
2018-09-17T17:49:54.256Z,101638.52
2018-09-17T17:52:23.852Z,101640.99
2018-09-17T17:54:53.175Z,101637.00
2018-09-17T17:57:22.632Z,101638.30
2018-09-17T17:59:52.067Z,101639.07
2018-09-17T18:02:21.501Z,101633.11
2018-09-17T18:04:50.958Z,101638.13
2018-09-17T18:07:20.976Z,101635.08
2018-09-17T18:09:50.469Z,101642.23
2018-09-17T18:12:19.989Z,101642.64
2018-09-17T18:14:49.436Z,101641.73
2018-09-17T18:17:18.862Z,101646.56
2018-09-17T18:19:48.535Z,101643.27
2018-09-17T18:22:18.189Z,101644.73
2018-09-17T18:24:47.658Z,101640.47
2018-09-17T18:27:22.756Z,101642.41
2018-09-17T18:29:52.158Z,101640.83
2018-09-17T18:32:21.618Z,101644.87
2018-09-17T18:34:51.115Z,101641.78
2018-09-17T18:37:20.509Z,101643.55
2018-09-17T18:40:03.069Z,101644.49
2018-09-17T18:42:32.892Z,101645.35
2018-09-17T18:45:02.561Z,101643.56
2018-09-17T18:47:33.021Z,101639.08
2018-09-17T18:50:02.468Z,101634.58
2018-09-17T18:52:32.178Z,101633.23
2018-09-17T18:55:05.040Z,101634.85
2018-09-17T18:57:34.523Z,101631.23
2018-09-17T19:00:04.022Z,101629.31
2018-09-17T19:02:33.434Z,101631.81
2018-09-17T19:05:02.951Z,101623.39
2018-09-17T19:07:32.363Z,101622.88
2018-09-17T19:10:01.935Z,101622.77
2018-09-17T19:12:33.206Z,101621.28
2018-09-17T19:15:09.371Z,101623.30
2018-09-17T19:17:41.820Z,101621.34
2018-09-17T19:20:12.622Z,101620.17
2018-09-17T19:22:47.167Z,101616.40
2018-09-17T19:25:16.791Z,101613.45
2018-09-17T19:27:51.410Z,101618.58
2018-09-17T19:30:21.303Z,101620.53
2018-09-17T19:32:50.691Z,101613.60
2018-09-17T19:35:20.117Z,101609.80
2018-09-17T19:37:54.849Z,101608.60
2018-09-17T19:40:24.390Z,101607.91
2018-09-17T19:42:53.670Z,101610.27
2018-09-17T19:45:29.363Z,101605.95
2018-09-17T19:47:58.890Z,101603.95
2018-09-17T19:50:35.980Z,101600.99
2018-09-17T19:53:06.406Z,101595.81
2018-09-17T19:55:35.866Z,101594.20
2018-09-17T19:58:16.198Z,101592.97
2018-09-17T20:00:45.637Z,101590.03
2018-09-17T20:03:15.021Z,101581.37
2018-09-17T20:05:49.577Z,101587.23
2018-09-17T20:08:19.443Z,101587.78
2018-09-17T20:10:49.147Z,101582.63
2018-09-17T20:13:18.703Z,101580.94
2018-09-17T20:15:49.381Z,101583.72
2018-09-17T20:18:24.129Z,101583.40
2018-09-17T20:20:53.483Z,101583.05
2018-09-17T20:23:23.093Z,101584.02
2018-09-17T20:25:54.612Z,101580.97
2018-09-17T20:28:24.191Z,101580.19
2018-09-17T20:30:53.797Z,101575.88
2018-09-17T20:33:25.823Z,101573.77
2018-09-17T20:35:55.262Z,101570.31
2018-09-17T20:38:24.704Z,101573.95
2018-09-17T20:40:54.034Z,101569.60
2018-09-17T20:43:23.790Z,101569.73
2018-09-17T20:45:54.042Z,101570.71
2018-09-17T20:48:23.451Z,101566.40
2018-09-17T20:50:53.222Z,101558.52
2018-09-17T20:53:22.977Z,101559.95
2018-09-17T20:55:56.336Z,101553.81
2018-09-17T20:58:29.531Z,101554.78
2018-09-17T21:00:59.710Z,101556.62
2018-09-17T21:03:29.285Z,101554.48
2018-09-17T21:05:59.857Z,101550.12
2018-09-17T21:08:31.680Z,101546.67
2018-09-17T21:11:01.134Z,101548.05
2018-09-17T21:13:30.639Z,101542.36
2018-09-17T21:16:00.935Z,101539.77
2018-09-17T21:18:30.469Z,101539.36
2018-09-17T21:21:04.101Z,101539.86
2018-09-17T21:23:33.625Z,101532.42
2018-09-17T21:26:03.085Z,101535.13
2018-09-17T21:28:32.650Z,101528.56
2018-09-17T21:31:02.048Z,101526.38
2018-09-17T21:33:31.616Z,101523.78
2018-09-17T21:36:00.996Z,101525.19
2018-09-17T21:38:30.415Z,101523.45
2018-09-17T21:40:59.946Z,101518.20
2018-09-17T21:43:29.394Z,101517.76
2018-09-17T21:45:58.770Z,101508.95
2018-09-17T21:48:28.185Z,101510.31
2018-09-17T21:50:57.570Z,101507.23
2018-09-17T21:53:36.030Z,101509.04
2018-09-17T21:56:06.213Z,101505.98
2018-09-17T21:58:35.616Z,101514.37
2018-09-17T22:01:06.234Z,101507.38
2018-09-17T22:03:37.151Z,101509.61
2018-09-17T22:06:06.556Z,101499.91
2018-09-17T22:08:35.981Z,101509.16
2018-09-17T22:11:06.112Z,101500.36
2018-09-17T22:13:35.537Z,101497.31
2018-09-17T22:16:06.140Z,101495.57
2018-09-17T22:18:35.719Z,101495.58
2018-09-17T22:21:06.352Z,101491.20
2018-09-17T22:23:35.757Z,101491.61
2018-09-17T22:26:06.447Z,101484.56
2018-09-17T22:28:35.947Z,101480.67
2018-09-17T22:31:06.130Z,101478.94
2018-09-17T22:33:35.557Z,101477.20
2018-09-17T22:36:06.194Z,101477.23
2018-09-17T22:38:35.578Z,101472.81
2018-09-17T22:41:05.052Z,101466.70
2018-09-17T22:43:34.469Z,101464.03
2018-09-17T22:46:03.814Z,101461.84
2018-09-17T22:48:33.154Z,101460.48
2018-09-17T22:51:02.510Z,101463.54
2018-09-17T22:53:31.863Z,101458.64
2018-09-17T22:56:01.219Z,101449.80
2018-09-17T22:58:30.596Z,101451.53
2018-09-17T23:00:59.930Z,101453.67
2018-09-17T23:03:29.865Z,101452.31
2018-09-17T23:06:06.315Z,101460.23
2018-09-17T23:08:43.524Z,101459.74
2018-09-17T23:11:21.014Z,101450.91
2018-09-17T23:13:58.103Z,101444.70
2018-09-17T23:16:35.619Z,101445.08
2018-09-17T23:19:14.716Z,101439.73
2018-09-17T23:21:52.034Z,101434.86
2018-09-17T23:24:29.579Z,101430.88
2018-09-17T23:27:05.143Z,101427.33
2018-09-17T23:29:41.596Z,101418.07
2018-09-17T23:32:19.098Z,101417.63
2018-09-17T23:34:57.135Z,101418.53
2018-09-17T23:37:36.590Z,101422.09
2018-09-17T23:40:21.736Z,101413.75
2018-09-17T23:42:59.377Z,101409.79
2018-09-17T23:45:37.373Z,101406.28
2018-09-17T23:48:15.236Z,101401.91
2018-09-17T23:50:52.276Z,101403.70
2018-09-17T23:53:29.469Z,101397.14
2018-09-17T23:56:06.281Z,101402.47
2018-09-17T23:58:43.384Z,101393.73
